createdAt,value
2018-04-20T00:00:02.123Z,14.67
2018-04-20T00:00:06.122Z,14.79
2018-04-20T00:00:10.454Z,14.8
2018-04-20T00:00:14.558Z,14.74
2018-04-20T00:00:18.875Z,14.78
2018-04-20T00:00:22.976Z,14.72
2018-04-20T00:00:27.302Z,14.78
2018-04-20T00:00:31.404Z,14.8
2018-04-20T00:00:35.635Z,14.74
2018-04-20T00:00:39.752Z,14.79
2018-04-20T00:00:44.073Z,14.75
2018-04-20T00:00:48.288Z,14.8
2018-04-20T00:00:52.387Z,14.82
2018-04-20T00:00:56.699Z,14.72
2018-04-20T00:01:00.952Z,14.83
2018-04-20T00:01:05.314Z,14.82
2018-04-20T00:01:09.312Z,14.86
2018-04-20T00:01:13.638Z,14.85
2018-04-20T00:01:17.848Z,14.87
2018-04-20T00:01:21.849Z,14.85
2018-04-20T00:01:26.063Z,14.83
2018-04-20T00:01:30.174Z,14.79
2018-04-20T00:01:34.287Z,14.83
2018-04-20T00:01:38.600Z,14.8
2018-04-20T00:01:42.810Z,14.79
2018-04-20T00:01:47.122Z,14.83
2018-04-20T00:01:51.223Z,14.83
2018-04-20T00:01:55.542Z,14.83
2018-04-20T00:01:59.533Z,14.83
2018-04-20T00:02:03.634Z,14.93
2018-04-20T00:02:07.813Z,14.78
2018-04-20T00:02:11.994Z,14.85
2018-04-20T00:02:16.457Z,14.91
2018-04-20T00:02:20.834Z,14.78
2018-04-20T00:02:24.940Z,14.93
2018-04-20T00:02:29.147Z,14.9
2018-04-20T00:02:33.243Z,14.94
2018-04-20T00:02:37.455Z,14.94
2018-04-20T00:02:41.558Z,14.93
2018-04-20T00:02:45.909Z,14.9
2018-04-20T00:02:50.223Z,14.91
2018-04-20T00:02:54.432Z,14.94
2018-04-20T00:02:58.536Z,15.01
2018-04-20T00:03:02.640Z,14.94
2018-04-20T00:03:06.742Z,14.97
2018-04-20T00:03:10.730Z,14.94
2018-04-20T00:03:15.047Z,15.03
2018-04-20T00:03:19.260Z,15.03
2018-04-20T00:03:23.464Z,15.03
2018-04-20T00:03:27.672Z,14.94
2018-04-20T00:03:31.885Z,14.97
2018-04-20T00:03:36.211Z,14.97
2018-04-20T00:03:40.307Z,14.98
2018-04-20T00:03:44.631Z,15
2018-04-20T00:03:48.737Z,15.03
2018-04-20T00:03:52.947Z,14.94
2018-04-20T00:03:57.086Z,15.03
2018-04-20T00:04:01.193Z,15.01
2018-04-20T00:04:05.522Z,15.03
2018-04-20T00:04:09.528Z,15.07
2018-04-20T00:04:13.676Z,15.05
2018-04-20T00:04:17.990Z,15.12
2018-04-20T00:04:22.314Z,15.09
2018-04-20T00:04:26.645Z,15.04
2018-04-20T00:04:30.854Z,15.11
2018-04-20T00:04:34.955Z,15.09
2018-04-20T00:04:39.060Z,15.03
2018-04-20T00:04:43.286Z,15.04
2018-04-20T00:04:47.498Z,15.09
2018-04-20T00:04:51.808Z,15.11
2018-04-20T00:04:56.128Z,15.01
2018-04-20T00:05:00.333Z,15
2018-04-20T00:05:04.219Z,15.12
2018-04-20T00:05:08.539Z,15.12
2018-04-20T00:05:12.641Z,15.19
2018-04-20T00:05:16.977Z,15.12
2018-04-20T00:05:21.301Z,15.18
2018-04-20T00:05:25.294Z,15.09
2018-04-20T00:05:29.515Z,15.16
2018-04-20T00:05:33.831Z,15.16
2018-04-20T00:05:38.036Z,15.19
2018-04-20T00:05:41.925Z,15.23
2018-04-20T00:05:46.030Z,15.15
2018-04-20T00:05:50.348Z,15.18
2018-04-20T00:05:54.459Z,15.2
2018-04-20T00:05:58.792Z,15.18
2018-04-20T00:06:02.889Z,15.2
2018-04-20T00:06:06.989Z,15.19
2018-04-20T00:06:11.086Z,15.19
2018-04-20T00:06:15.302Z,15.16
2018-04-20T00:06:19.516Z,15.2
2018-04-20T00:06:23.834Z,15.2
2018-04-20T00:06:28.040Z,15.31
2018-04-20T00:06:32.141Z,15.22
2018-04-20T00:06:36.139Z,15.3
2018-04-20T00:06:40.346Z,15.19
2018-04-20T00:06:44.557Z,15.22
2018-04-20T00:06:48.765Z,15.23
2018-04-20T00:06:53.082Z,15.23
2018-04-20T00:06:57.307Z,15.23
2018-04-20T00:07:01.405Z,15.27
2018-04-20T00:07:05.508Z,15.31
2018-04-20T00:07:09.608Z,15.34
2018-04-20T00:07:13.817Z,15.31
2018-04-20T00:07:18.026Z,15.33
2018-04-20T00:07:22.356Z,15.31
2018-04-20T00:07:26.559Z,15.37
2018-04-20T00:07:30.773Z,15.37
2018-04-20T00:07:35.097Z,15.44
2018-04-20T00:07:39.416Z,15.4
2018-04-20T00:07:43.629Z,15.33
2018-04-20T00:07:47.746Z,15.41
2018-04-20T00:07:51.957Z,15.38
2018-04-20T00:07:56.170Z,15.41
2018-04-20T00:08:00.377Z,15.41
2018-04-20T00:08:04.586Z,15.46
2018-04-20T00:08:08.583Z,15.37
2018-04-20T00:08:12.700Z,15.43
2018-04-20T00:08:16.796Z,15.43
2018-04-20T00:08:21.000Z,15.48
2018-04-20T00:08:25.209Z,15.46
2018-04-20T00:08:29.316Z,15.43
2018-04-20T00:08:33.527Z,15.4
2018-04-20T00:08:37.741Z,15.44
2018-04-20T00:08:41.948Z,15.49
2018-04-20T00:08:46.280Z,15.44
2018-04-20T00:08:50.605Z,15.53
2018-04-20T00:08:54.820Z,15.44
2018-04-20T00:08:59.026Z,15.51
2018-04-20T00:09:03.238Z,15.52
2018-04-20T00:09:07.448Z,15.53
2018-04-20T00:09:11.121Z,15.49
2018-04-20T00:09:15.222Z,15.51
2018-04-20T00:09:19.530Z,15.49
2018-04-20T00:09:23.869Z,15.53
2018-04-20T00:09:27.866Z,15.52
2018-04-20T00:09:31.966Z,15.59
2018-04-20T00:09:36.292Z,15.6
2018-04-20T00:09:40.395Z,15.53
2018-04-20T00:09:44.511Z,15.58
2018-04-20T00:09:48.616Z,15.56
2018-04-20T00:09:52.931Z,15.58
2018-04-20T00:09:57.137Z,15.56
2018-04-20T00:10:01.350Z,15.6
2018-04-20T00:10:05.663Z,15.56
2018-04-20T00:10:09.547Z,15.66
2018-04-20T00:10:13.764Z,15.62
2018-04-20T00:10:18.079Z,15.53
2018-04-20T00:10:22.295Z,15.56
2018-04-20T00:10:26.504Z,15.62
2018-04-20T00:10:30.713Z,15.59
2018-04-20T00:10:34.815Z,15.64
2018-04-20T00:10:39.131Z,15.66
2018-04-20T00:10:43.125Z,15.62
2018-04-20T00:10:47.226Z,15.7
2018-04-20T00:10:51.539Z,15.71
2018-04-20T00:10:55.540Z,15.74
2018-04-20T00:10:59.862Z,15.68
2018-04-20T00:11:03.870Z,15.67
2018-04-20T00:11:08.085Z,15.67
2018-04-20T00:11:11.866Z,15.7
2018-04-20T00:11:15.968Z,15.73
2018-04-20T00:11:20.185Z,15.7
2018-04-20T00:11:24.392Z,15.7
2018-04-20T00:11:28.502Z,15.73
2018-04-20T00:11:32.605Z,15.7
2018-04-20T00:11:36.925Z,15.78
2018-04-20T00:11:41.137Z,15.7
2018-04-20T00:11:45.355Z,15.71
2018-04-20T00:11:49.569Z,15.73
2018-04-20T00:11:53.567Z,15.73
2018-04-20T00:11:57.805Z,15.76
2018-04-20T00:12:01.918Z,15.74
2018-04-20T00:12:06.029Z,15.8
2018-04-20T00:12:10.240Z,15.74
2018-04-20T00:12:14.457Z,15.7
2018-04-20T00:12:18.666Z,15.73
2018-04-20T00:12:22.880Z,15.7
2018-04-20T00:12:27.204Z,15.76
2018-04-20T00:12:31.415Z,15.77
2018-04-20T00:12:35.413Z,15.84
2018-04-20T00:12:39.513Z,15.78
2018-04-20T00:12:43.836Z,15.8
2018-04-20T00:12:48.049Z,15.8
2018-04-20T00:12:52.368Z,15.76
2018-04-20T00:12:56.468Z,15.78
2018-04-20T00:13:00.353Z,15.78
2018-04-20T00:13:04.677Z,15.77
2018-04-20T00:13:08.997Z,15.77
2018-04-20T00:13:13.219Z,15.78
2018-04-20T00:13:17.538Z,15.78
2018-04-20T00:13:21.867Z,15.84
2018-04-20T00:13:25.967Z,15.84
2018-04-20T00:13:30.360Z,15.8
2018-04-20T00:13:34.472Z,15.76
2018-04-20T00:13:38.459Z,15.8
2018-04-20T00:13:42.663Z,15.78
2018-04-20T00:13:46.871Z,15.77
2018-04-20T00:13:51.078Z,15.81
2018-04-20T00:13:55.393Z,15.77
2018-04-20T00:13:59.497Z,15.86
2018-04-20T00:14:03.814Z,15.78
2018-04-20T00:14:07.920Z,15.88
2018-04-20T00:14:11.910Z,15.8
2018-04-20T00:14:16.127Z,15.81
2018-04-20T00:14:20.458Z,15.86
2018-04-20T00:14:24.795Z,15.85
2018-04-20T00:14:29.046Z,15.88
2018-04-20T00:14:33.365Z,15.86
2018-04-20T00:14:37.591Z,15.88
2018-04-20T00:14:41.922Z,15.92
2018-04-20T00:14:46.236Z,15.84
2018-04-20T00:14:50.449Z,15.84
2018-04-20T00:14:54.550Z,15.81
2018-04-20T00:14:58.768Z,15.88
2018-04-20T00:15:02.870Z,15.86
2018-04-20T00:15:06.868Z,15.84
2018-04-20T00:15:11.073Z,15.95
2018-04-20T00:15:15.063Z,15.92
2018-04-20T00:15:19.384Z,15.81
2018-04-20T00:15:23.705Z,15.86
2018-04-20T00:15:27.912Z,15.95
2018-04-20T00:15:32.241Z,15.86
2018-04-20T00:15:36.562Z,15.95
2018-04-20T00:15:40.558Z,15.84
2018-04-20T00:15:44.765Z,15.93
2018-04-20T00:15:49.087Z,15.84
2018-04-20T00:15:53.318Z,15.99
2018-04-20T00:15:57.644Z,15.95
2018-04-20T00:16:01.748Z,15.92
2018-04-20T00:16:06.070Z,15.96
2018-04-20T00:16:10.380Z,15.92
2018-04-20T00:16:14.586Z,15.95
2018-04-20T00:16:18.583Z,15.89
2018-04-20T00:16:22.797Z,15.91
2018-04-20T00:16:27.009Z,15.91
2018-04-20T00:16:31.116Z,15.93
2018-04-20T00:16:35.436Z,15.91
2018-04-20T00:16:39.647Z,15.92
2018-04-20T00:16:43.964Z,15.96
2018-04-20T00:16:48.064Z,15.92
2018-04-20T00:16:52.396Z,15.89
2018-04-20T00:16:56.708Z,15.95
2018-04-20T00:17:01.034Z,15.93
2018-04-20T00:17:05.194Z,15.98
2018-04-20T00:17:09.511Z,15.88
2018-04-20T00:17:13.724Z,15.92
2018-04-20T00:17:17.940Z,15.92
2018-04-20T00:17:22.148Z,15.92
2018-04-20T00:17:26.473Z,15.93
2018-04-20T00:17:30.568Z,15.89
2018-04-20T00:17:34.777Z,15.93
2018-04-20T00:17:38.770Z,15.92
2018-04-20T00:17:42.872Z,15.92
2018-04-20T00:17:47.202Z,15.92
2018-04-20T00:17:51.307Z,16.06
2018-04-20T00:17:55.624Z,15.98
2018-04-20T00:17:59.835Z,15.89
2018-04-20T00:18:04.059Z,15.99
2018-04-20T00:18:08.163Z,15.96
2018-04-20T00:18:12.156Z,15.95
2018-04-20T00:18:16.256Z,15.95
2018-04-20T00:18:20.484Z,15.98
2018-04-20T00:18:24.692Z,16.01
2018-04-20T00:18:28.901Z,15.96
2018-04-20T00:18:33.001Z,15.98
2018-04-20T00:18:37.218Z,15.96
2018-04-20T00:18:41.535Z,16.07
2018-04-20T00:18:45.634Z,15.96
2018-04-20T00:18:49.948Z,16.03
2018-04-20T00:18:54.154Z,15.99
2018-04-20T00:18:58.359Z,15.95
2018-04-20T00:19:02.675Z,15.92
2018-04-20T00:19:06.895Z,15.98
2018-04-20T00:19:11.108Z,16.04
2018-04-20T00:19:15.427Z,15.93
2018-04-20T00:19:19.418Z,15.98
2018-04-20T00:19:23.631Z,15.98
2018-04-20T00:19:27.747Z,15.92
2018-04-20T00:19:32.066Z,15.99
2018-04-20T00:19:36.273Z,15.99
2018-04-20T00:19:40.375Z,16.01
2018-04-20T00:19:44.697Z,16.07
2018-04-20T00:19:48.917Z,15.98
2018-04-20T00:19:53.131Z,15.93
2018-04-20T00:19:57.342Z,15.99
2018-04-20T00:20:01.554Z,16.08
2018-04-20T00:20:05.554Z,15.89
2018-04-20T00:20:09.656Z,16.04
2018-04-20T00:20:13.873Z,15.93
2018-04-20T00:20:18.084Z,15.95
2018-04-20T00:20:22.189Z,16.06
2018-04-20T00:20:26.403Z,16.08
2018-04-20T00:20:30.609Z,16.01
2018-04-20T00:20:34.710Z,15.88
2018-04-20T00:20:39.028Z,16.07
2018-04-20T00:20:43.145Z,16.06
2018-04-20T00:20:47.136Z,16.03
2018-04-20T00:20:51.448Z,15.92
2018-04-20T00:20:55.654Z,16.03
2018-04-20T00:20:59.862Z,16.01
2018-04-20T00:21:03.959Z,16.07
2018-04-20T00:21:08.170Z,15.92
2018-04-20T00:21:12.377Z,16.1
2018-04-20T00:21:16.588Z,15.98
2018-04-20T00:21:20.797Z,15.96
2018-04-20T00:21:25.010Z,16.07
2018-04-20T00:21:29.217Z,16.07
2018-04-20T00:21:33.430Z,16.08
2018-04-20T00:21:37.637Z,16.08
2018-04-20T00:21:41.845Z,16.08
2018-04-20T00:21:46.058Z,16.08
2018-04-20T00:21:50.170Z,15.92
2018-04-20T00:21:54.384Z,15.98
2018-04-20T00:21:58.698Z,16.1
2018-04-20T00:22:03.023Z,16.06
2018-04-20T00:22:06.908Z,15.96
2018-04-20T00:22:10.904Z,16.03
2018-04-20T00:22:15.124Z,16.07
2018-04-20T00:22:19.346Z,16.03
2018-04-20T00:22:23.555Z,16.06
2018-04-20T00:22:27.870Z,16.1
2018-04-20T00:22:31.968Z,15.91
2018-04-20T00:22:36.069Z,16.1
2018-04-20T00:22:40.388Z,16.03
2018-04-20T00:22:44.484Z,16.07
2018-04-20T00:22:48.583Z,15.96
2018-04-20T00:22:52.898Z,15.93
2018-04-20T00:22:57.265Z,15.92
2018-04-20T00:23:01.476Z,15.98
2018-04-20T00:23:05.688Z,15.92
2018-04-20T00:23:09.950Z,16.03
2018-04-20T00:23:14.051Z,15.96
2018-04-20T00:23:18.156Z,16.06
2018-04-20T00:23:22.263Z,15.95
2018-04-20T00:23:26.520Z,16.08
2018-04-20T00:23:30.832Z,16.07
2018-04-20T00:23:35.159Z,16.01
2018-04-20T00:23:39.310Z,16.01
2018-04-20T00:23:43.516Z,15.92
2018-04-20T00:23:47.729Z,16.1
2018-04-20T00:23:51.936Z,16.06
2018-04-20T00:23:56.142Z,16.06
2018-04-20T00:24:00.360Z,16.03
2018-04-20T00:24:04.726Z,16.04
2018-04-20T00:24:08.974Z,15.92
2018-04-20T00:24:13.287Z,15.99
2018-04-20T00:24:17.500Z,15.98
2018-04-20T00:24:21.822Z,16.01
2018-04-20T00:24:26.032Z,15.99
2018-04-20T00:24:30.251Z,16.03
2018-04-20T00:24:34.464Z,16.01
2018-04-20T00:24:38.776Z,16.01
2018-04-20T00:24:43.092Z,15.98
2018-04-20T00:24:47.191Z,15.99
2018-04-20T00:24:51.409Z,16.01
2018-04-20T00:24:55.723Z,16.07
2018-04-20T00:24:59.828Z,16.01
2018-04-20T00:25:04.026Z,16.01
2018-04-20T00:25:08.236Z,16.01
2018-04-20T00:25:12.606Z,15.98
2018-04-20T00:25:16.813Z,16.1
2018-04-20T00:25:21.131Z,15.99
2018-04-20T00:25:25.125Z,16.03
2018-04-20T00:25:29.333Z,16.04
2018-04-20T00:25:33.435Z,16.03
2018-04-20T00:25:37.643Z,15.98
2018-04-20T00:25:41.851Z,16.04
2018-04-20T00:25:45.954Z,16.07
2018-04-20T00:25:50.057Z,16.04
2018-04-20T00:25:54.277Z,16.03
2018-04-20T00:25:58.496Z,16.03
2018-04-20T00:26:02.805Z,16.06
2018-04-20T00:26:06.903Z,16.06
2018-04-20T00:26:10.895Z,16.03
2018-04-20T00:26:14.887Z,15.98
2018-04-20T00:26:19.093Z,16.03
2018-04-20T00:26:23.308Z,16.03
2018-04-20T00:26:27.299Z,15.98
2018-04-20T00:26:31.509Z,15.99
2018-04-20T00:26:35.827Z,16.01
2018-04-20T00:26:40.046Z,16.08
2018-04-20T00:26:44.256Z,16.01
2018-04-20T00:26:48.581Z,16.03
2018-04-20T00:26:52.922Z,16.1
2018-04-20T00:26:57.250Z,15.98
2018-04-20T00:27:01.471Z,16.03
2018-04-20T00:27:05.831Z,16.01
2018-04-20T00:27:09.938Z,16.03
2018-04-20T00:27:13.927Z,16.01
2018-04-20T00:27:18.026Z,16.01
2018-04-20T00:27:22.342Z,16.04
2018-04-20T00:27:26.439Z,16.01
2018-04-20T00:27:30.645Z,15.99
2018-04-20T00:27:34.969Z,16.03
2018-04-20T00:27:39.181Z,16.01
2018-04-20T00:27:43.280Z,16.01
2018-04-20T00:27:47.391Z,15.98
2018-04-20T00:27:51.594Z,16.01
2018-04-20T00:27:55.907Z,15.98
2018-04-20T00:28:00.122Z,16.03
2018-04-20T00:28:04.232Z,15.99
2018-04-20T00:28:08.445Z,16.07
2018-04-20T00:28:12.551Z,16.07
2018-04-20T00:28:16.757Z,16.14
2018-04-20T00:28:21.073Z,15.99
2018-04-20T00:28:25.279Z,16.13
2018-04-20T00:28:29.598Z,15.98
2018-04-20T00:28:33.806Z,16.08
2018-04-20T00:28:38.123Z,15.98
2018-04-20T00:28:42.410Z,16.03
2018-04-20T00:28:46.777Z,16.03
2018-04-20T00:28:51.442Z,15.96
2018-04-20T00:28:55.765Z,16.04
2018-04-20T00:28:59.985Z,15.99
2018-04-20T00:29:04.367Z,16.07
2018-04-20T00:29:08.578Z,16.01
2018-04-20T00:29:12.782Z,16.01
2018-04-20T00:29:17.097Z,16.11
2018-04-20T00:29:21.193Z,16.1
2018-04-20T00:29:25.515Z,16.01
2018-04-20T00:29:29.818Z,15.99
2018-04-20T00:29:33.813Z,16.08
2018-04-20T00:29:37.912Z,16.11
2018-04-20T00:29:42.227Z,15.98
2018-04-20T00:29:46.440Z,16.1
2018-04-20T00:29:50.650Z,15.99
2018-04-20T00:29:54.753Z,16.04
2018-04-20T00:29:58.739Z,16.07
2018-04-20T00:30:02.830Z,16.08
2018-04-20T00:30:06.822Z,16.1
2018-04-20T00:30:10.820Z,16.03
2018-04-20T00:30:15.138Z,15.93
2018-04-20T00:30:19.477Z,16.1
2018-04-20T00:30:23.577Z,16.01
2018-04-20T00:30:27.677Z,16.08
2018-04-20T00:30:31.890Z,16.13
2018-04-20T00:30:36.266Z,16.03
2018-04-20T00:30:40.476Z,15.95
2018-04-20T00:30:44.467Z,15.99
2018-04-20T00:30:48.783Z,16.08
2018-04-20T00:30:52.899Z,16.07
2018-04-20T00:30:57.222Z,16.06
2018-04-20T00:31:01.539Z,16.01
2018-04-20T00:31:05.588Z,16.13
2018-04-20T00:31:09.799Z,16.03
2018-04-20T00:31:13.684Z,16.08
2018-04-20T00:31:17.885Z,16.03
2018-04-20T00:31:21.982Z,16.01
2018-04-20T00:31:26.296Z,16.04
2018-04-20T00:31:30.623Z,15.99
2018-04-20T00:31:34.881Z,16.1
2018-04-20T00:31:39.088Z,16.06
2018-04-20T00:31:43.305Z,15.99
2018-04-20T00:31:47.408Z,15.99
2018-04-20T00:31:51.752Z,16.01
2018-04-20T00:31:55.970Z,15.98
2018-04-20T00:32:00.104Z,16.03
2018-04-20T00:32:04.214Z,16.1
2018-04-20T00:32:08.214Z,16.13
2018-04-20T00:32:12.477Z,16.08
2018-04-20T00:32:16.367Z,16.13
2018-04-20T00:32:20.579Z,15.96
2018-04-20T00:32:24.897Z,16.08
2018-04-20T00:32:28.995Z,15.95
2018-04-20T00:32:32.994Z,16.1
2018-04-20T00:32:37.312Z,15.95
2018-04-20T00:32:41.409Z,15.96
2018-04-20T00:32:45.612Z,16.01
2018-04-20T00:32:49.940Z,16.07
2018-04-20T00:32:54.258Z,16.11
2018-04-20T00:32:58.356Z,16.11
2018-04-20T00:33:02.519Z,15.98
2018-04-20T00:33:06.620Z,15.99
2018-04-20T00:33:10.830Z,15.98
2018-04-20T00:33:15.037Z,16.07
2018-04-20T00:33:19.032Z,15.93
2018-04-20T00:33:23.243Z,16.03
2018-04-20T00:33:27.343Z,15.99
2018-04-20T00:33:31.556Z,16.03
2018-04-20T00:33:35.652Z,16.07
2018-04-20T00:33:39.972Z,15.98
2018-04-20T00:33:44.288Z,16.03
2018-04-20T00:33:48.498Z,16.01
2018-04-20T00:33:52.760Z,15.98
2018-04-20T00:33:57.089Z,16.03
2018-04-20T00:34:01.297Z,16.1
2018-04-20T00:34:05.513Z,15.98
2018-04-20T00:34:09.613Z,16.01
2018-04-20T00:34:13.935Z,16.04
2018-04-20T00:34:18.151Z,16.01
2018-04-20T00:34:22.356Z,16.04
2018-04-20T00:34:26.467Z,15.98
2018-04-20T00:34:30.795Z,16.04
2018-04-20T00:34:34.895Z,16.03
2018-04-20T00:34:39.132Z,15.98
2018-04-20T00:34:43.474Z,16.04
2018-04-20T00:34:48.084Z,15.98
2018-04-20T00:34:52.212Z,16.03
2018-04-20T00:34:56.526Z,16.03
2018-04-20T00:35:00.834Z,16.04
2018-04-20T00:35:05.052Z,16.04
2018-04-20T00:35:09.264Z,15.98
2018-04-20T00:35:13.378Z,16.01
2018-04-20T00:35:17.707Z,16.04
2018-04-20T00:35:21.932Z,16.03
2018-04-20T00:35:26.151Z,16.07
2018-04-20T00:35:30.358Z,16.01
2018-04-20T00:35:34.463Z,15.96
2018-04-20T00:35:38.779Z,16.01
2018-04-20T00:35:43.099Z,16.07
2018-04-20T00:35:47.202Z,16.03
2018-04-20T00:35:51.409Z,16.01
2018-04-20T00:35:55.617Z,16.11
2018-04-20T00:35:59.944Z,16.04
2018-04-20T00:36:04.049Z,15.98
2018-04-20T00:36:08.380Z,15.99
2018-04-20T00:36:12.484Z,16.07
2018-04-20T00:36:16.698Z,16.03
2018-04-20T00:36:20.798Z,16.01
2018-04-20T00:36:24.792Z,15.98
2018-04-20T00:36:29.013Z,16.03
2018-04-20T00:36:33.110Z,16.06
2018-04-20T00:36:37.428Z,16.01
2018-04-20T00:36:41.754Z,16.03
2018-04-20T00:36:45.971Z,16.01
2018-04-20T00:36:50.077Z,16.04
2018-04-20T00:36:54.420Z,16.04
2018-04-20T00:36:58.740Z,16.01
2018-04-20T00:37:02.879Z,15.96
2018-04-20T00:37:06.659Z,16.03
2018-04-20T00:37:10.650Z,16.03
2018-04-20T00:37:14.860Z,16.1
2018-04-20T00:37:18.958Z,15.99
2018-04-20T00:37:22.997Z,16.04
2018-04-20T00:37:27.211Z,16.01
2018-04-20T00:37:31.533Z,15.98
2018-04-20T00:37:35.632Z,15.99
2018-04-20T00:37:39.839Z,16.08
2018-04-20T00:37:44.057Z,15.98
2018-04-20T00:37:48.378Z,16.01
2018-04-20T00:37:52.636Z,16.04
2018-04-20T00:37:56.843Z,16.03
2018-04-20T00:38:01.056Z,15.98
2018-04-20T00:38:05.314Z,16.01
2018-04-20T00:38:09.421Z,16.01
2018-04-20T00:38:13.634Z,15.99
2018-04-20T00:38:17.843Z,16.06
2018-04-20T00:38:22.161Z,16.04
2018-04-20T00:38:26.160Z,16.01
2018-04-20T00:38:30.484Z,16.03
2018-04-20T00:38:34.701Z,16.01
2018-04-20T00:38:38.913Z,16.04
2018-04-20T00:38:43.012Z,16.03
2018-04-20T00:38:47.237Z,16.06
2018-04-20T00:38:51.232Z,16.04
2018-04-20T00:38:55.337Z,16.01
2018-04-20T00:38:59.553Z,16.03
2018-04-20T00:39:03.546Z,16.11
2018-04-20T00:39:07.863Z,15.99
2018-04-20T00:39:12.189Z,16.01
2018-04-20T00:39:16.293Z,16.03
2018-04-20T00:39:20.513Z,15.99
2018-04-20T00:39:24.515Z,16.1
2018-04-20T00:39:28.833Z,15.98
2018-04-20T00:39:33.158Z,16.04
2018-04-20T00:39:37.268Z,16.03
2018-04-20T00:39:41.588Z,16.01
2018-04-20T00:39:45.705Z,15.99
2018-04-20T00:39:49.921Z,16.13
2018-04-20T00:39:54.133Z,16.04
2018-04-20T00:39:58.348Z,16.04
2018-04-20T00:40:02.347Z,15.98
2018-04-20T00:40:06.572Z,16.08
2018-04-20T00:40:10.791Z,16.11
2018-04-20T00:40:14.894Z,16.03
2018-04-20T00:40:19.214Z,16.01
2018-04-20T00:40:23.529Z,16.07
2018-04-20T00:40:27.737Z,16.06
2018-04-20T00:40:31.836Z,16.06
2018-04-20T00:40:36.155Z,15.98
2018-04-20T00:40:40.361Z,16.01
2018-04-20T00:40:44.572Z,15.99
2018-04-20T00:40:48.893Z,16.07
2018-04-20T00:40:52.890Z,16.01
2018-04-20T00:40:56.993Z,16.04
2018-04-20T00:41:01.310Z,16.03
2018-04-20T00:41:05.303Z,15.95
2018-04-20T00:41:09.400Z,16.07
2018-04-20T00:41:13.721Z,15.99
2018-04-20T00:41:18.062Z,15.98
2018-04-20T00:41:22.376Z,16.03
2018-04-20T00:41:26.695Z,16.06
2018-04-20T00:41:30.690Z,15.96
2018-04-20T00:41:34.897Z,15.99
2018-04-20T00:41:38.992Z,16.01
2018-04-20T00:41:43.312Z,15.99
2018-04-20T00:41:47.633Z,15.96
2018-04-20T00:41:51.959Z,16.08
2018-04-20T00:41:56.171Z,16.01
2018-04-20T00:42:00.281Z,16.01
2018-04-20T00:42:04.386Z,16.06
2018-04-20T00:42:08.485Z,15.98
2018-04-20T00:42:12.811Z,15.98
2018-04-20T00:42:17.020Z,15.96
2018-04-20T00:42:21.229Z,16.01
2018-04-20T00:42:25.551Z,16.08
2018-04-20T00:42:29.764Z,16.06
2018-04-20T00:42:33.864Z,15.99
2018-04-20T00:42:38.176Z,15.96
2018-04-20T00:42:42.283Z,16.08
2018-04-20T00:42:46.387Z,15.92
2018-04-20T00:42:50.701Z,16.13
2018-04-20T00:42:54.927Z,16.01
2018-04-20T00:42:59.138Z,15.99
2018-04-20T00:43:03.135Z,16.04
2018-04-20T00:43:07.130Z,16.06
2018-04-20T00:43:11.442Z,15.96
2018-04-20T00:43:15.657Z,15.99
2018-04-20T00:43:19.973Z,16.01
2018-04-20T00:43:24.177Z,16.01
2018-04-20T00:43:28.397Z,15.99
2018-04-20T00:43:32.612Z,15.98
2018-04-20T00:43:36.720Z,16.01
2018-04-20T00:43:41.035Z,16.01
2018-04-20T00:43:45.363Z,16.06
2018-04-20T00:43:49.683Z,16.14
2018-04-20T00:43:53.887Z,16.04
2018-04-20T00:43:58.091Z,15.98
2018-04-20T00:44:02.351Z,15.98
2018-04-20T00:44:06.565Z,16.07
2018-04-20T00:44:10.883Z,15.99
2018-04-20T00:44:14.978Z,16.01
2018-04-20T00:44:19.291Z,16.08
2018-04-20T00:44:23.395Z,16.03
2018-04-20T00:44:27.616Z,15.98
2018-04-20T00:44:31.953Z,16.01
2018-04-20T00:44:36.159Z,16.06
2018-04-20T00:44:40.415Z,16.03
2018-04-20T00:44:44.726Z,15.99
2018-04-20T00:44:48.931Z,15.99
2018-04-20T00:44:53.146Z,16.01
2018-04-20T00:44:57.469Z,16.03
2018-04-20T00:45:01.363Z,16.04
2018-04-20T00:45:05.465Z,16.01
2018-04-20T00:45:09.730Z,16.06
2018-04-20T00:45:14.228Z,16.01
2018-04-20T00:45:18.934Z,15.96
2018-04-20T00:45:23.039Z,15.99
2018-04-20T00:45:27.249Z,16.13
2018-04-20T00:45:31.350Z,15.96
2018-04-20T00:45:35.669Z,16.06
2018-04-20T00:45:39.875Z,16.04
2018-04-20T00:45:43.975Z,16.06
2018-04-20T00:45:48.288Z,16.04
2018-04-20T00:45:52.499Z,16.07
2018-04-20T00:45:56.704Z,16.03
2018-04-20T00:46:00.905Z,16.01
2018-04-20T00:46:05.011Z,15.96
2018-04-20T00:46:09.224Z,16.01
2018-04-20T00:46:13.335Z,16.1
2018-04-20T00:46:17.548Z,16.06
2018-04-20T00:46:21.752Z,16.13
2018-04-20T00:46:26.012Z,15.93
2018-04-20T00:46:30.068Z,16.07
2018-04-20T00:46:33.950Z,15.95
2018-04-20T00:46:37.949Z,15.92
2018-04-20T00:46:42.309Z,16.07
2018-04-20T00:46:46.625Z,16.04
2018-04-20T00:46:50.838Z,15.96
2018-04-20T00:46:55.050Z,15.91
2018-04-20T00:46:59.277Z,15.88
2018-04-20T00:47:03.388Z,15.91
2018-04-20T00:47:07.609Z,15.93
2018-04-20T00:47:11.713Z,15.98
2018-04-20T00:47:16.028Z,15.96
2018-04-20T00:47:20.354Z,15.93
2018-04-20T00:47:24.514Z,15.95
2018-04-20T00:47:28.724Z,15.96
2018-04-20T00:47:32.937Z,15.95
2018-04-20T00:47:37.254Z,15.98
2018-04-20T00:47:41.462Z,16.01
2018-04-20T00:47:45.689Z,16.01
2018-04-20T00:47:49.788Z,15.95
2018-04-20T00:47:54.018Z,15.96
2018-04-20T00:47:58.340Z,15.99
2018-04-20T00:48:02.553Z,15.98
2018-04-20T00:48:06.869Z,15.96
2018-04-20T00:48:10.860Z,15.99
2018-04-20T00:48:15.075Z,16.03
2018-04-20T00:48:19.388Z,15.99
2018-04-20T00:48:23.710Z,16.03
2018-04-20T00:48:27.806Z,15.95
2018-04-20T00:48:31.690Z,15.99
2018-04-20T00:48:35.845Z,15.93
2018-04-20T00:48:40.048Z,15.99
2018-04-20T00:48:44.364Z,15.92
2018-04-20T00:48:48.569Z,15.99
2018-04-20T00:48:52.773Z,15.95
2018-04-20T00:48:56.883Z,15.93
2018-04-20T00:49:01.093Z,15.95
2018-04-20T00:49:05.455Z,15.93
2018-04-20T00:49:09.784Z,15.93
2018-04-20T00:49:13.994Z,15.95
2018-04-20T00:49:18.198Z,15.93
2018-04-20T00:49:22.517Z,15.95
2018-04-20T00:49:26.740Z,15.95
2018-04-20T00:49:30.947Z,15.92
2018-04-20T00:49:35.158Z,15.95
2018-04-20T00:49:39.261Z,15.92
2018-04-20T00:49:43.470Z,15.88
2018-04-20T00:49:47.680Z,15.98
2018-04-20T00:49:51.896Z,15.92
2018-04-20T00:49:56.103Z,15.89
2018-04-20T00:50:00.322Z,15.92
2018-04-20T00:50:04.428Z,15.95
2018-04-20T00:50:08.746Z,15.92
2018-04-20T00:50:12.966Z,15.92
2018-04-20T00:50:17.175Z,15.91
2018-04-20T00:50:21.381Z,15.85
2018-04-20T00:50:25.379Z,15.93
2018-04-20T00:50:29.594Z,15.85
2018-04-20T00:50:33.698Z,15.93
2018-04-20T00:50:37.898Z,15.88
2018-04-20T00:50:42.102Z,15.91
2018-04-20T00:50:46.204Z,15.78
2018-04-20T00:50:50.515Z,15.8
2018-04-20T00:50:54.831Z,15.92
2018-04-20T00:50:59.146Z,15.92
2018-04-20T00:51:03.480Z,15.86
2018-04-20T00:51:07.797Z,15.81
2018-04-20T00:51:11.895Z,15.8
2018-04-20T00:51:16.097Z,15.85
2018-04-20T00:51:20.302Z,15.78
2018-04-20T00:51:24.515Z,15.88
2018-04-20T00:51:28.832Z,15.85
2018-04-20T00:51:32.729Z,15.85
2018-04-20T00:51:36.835Z,15.84
2018-04-20T00:51:41.157Z,15.88
2018-04-20T00:51:45.267Z,15.85
2018-04-20T00:51:49.482Z,15.84
2018-04-20T00:51:53.702Z,15.92
2018-04-20T00:51:58.017Z,15.85
2018-04-20T00:52:02.339Z,15.84
2018-04-20T00:52:06.552Z,15.85
2018-04-20T00:52:10.652Z,15.86
2018-04-20T00:52:14.750Z,15.89
2018-04-20T00:52:18.859Z,15.88
2018-04-20T00:52:22.955Z,15.93
2018-04-20T00:52:27.161Z,15.89
2018-04-20T00:52:31.374Z,15.89
2018-04-20T00:52:35.367Z,15.86
2018-04-20T00:52:39.474Z,15.86
2018-04-20T00:52:43.688Z,15.89
2018-04-20T00:52:47.897Z,15.85
2018-04-20T00:52:52.109Z,15.86
2018-04-20T00:52:56.430Z,15.89
2018-04-20T00:53:00.750Z,15.89
2018-04-20T00:53:04.903Z,15.85
2018-04-20T00:53:09.008Z,15.86
2018-04-20T00:53:13.217Z,15.78
2018-04-20T00:53:17.429Z,15.86
2018-04-20T00:53:21.631Z,15.84
2018-04-20T00:53:25.736Z,15.88
2018-04-20T00:53:29.837Z,15.88
2018-04-20T00:53:33.829Z,15.8
2018-04-20T00:53:37.827Z,15.85
2018-04-20T00:53:42.037Z,15.84
2018-04-20T00:53:46.349Z,15.86
2018-04-20T00:53:50.346Z,15.78
2018-04-20T00:53:54.717Z,15.77
2018-04-20T00:53:58.925Z,15.85
2018-04-20T00:54:03.134Z,15.86
2018-04-20T00:54:07.498Z,15.8
2018-04-20T00:54:11.702Z,15.88